sensor_id;sensor_type;location;lat;lon;timestamp;P1;durP1;ratioP1;P2;durP2;ratioP2
61477;SDS011;47345;52.334;10.392;2023-02-28T00:00:38;5.90;;;3.80;;
61477;SDS011;47345;52.334;10.392;2023-02-28T00:03:11;4.40;;;3.50;;
61477;SDS011;47345;52.334;10.392;2023-02-28T00:05:45;4.80;;;3.60;;
61477;SDS011;47345;52.334;10.392;2023-02-28T00:08:17;4.60;;;3.00;;
61477;SDS011;47345;52.334;10.392;2023-02-28T00:10:50;3.90;;;3.00;;
61477;SDS011;47345;52.334;10.392;2023-02-28T00:13:24;4.40;;;3.40;;
61477;SDS011;47345;52.334;10.392;2023-02-28T00:16:02;3.60;;;2.90;;
61477;SDS011;47345;52.334;10.392;2023-02-28T00:18:37;3.30;;;2.90;;
61477;SDS011;47345;52.334;10.392;2023-02-28T00:21:11;4.60;;;3.20;;
61477;SDS011;47345;52.334;10.392;2023-02-28T00:23:43;4.10;;;3.50;;
61477;SDS011;47345;52.334;10.392;2023-02-28T00:26:21;6.60;;;3.80;;
61477;SDS011;47345;52.334;10.392;2023-02-28T00:28:54;5.20;;;3.40;;
61477;SDS011;47345;52.334;10.392;2023-02-28T00:31:27;6.50;;;3.90;;
61477;SDS011;47345;52.334;10.392;2023-02-28T00:34:01;4.80;;;3.20;;
61477;SDS011;47345;52.334;10.392;2023-02-28T00:36:34;4.30;;;3.20;;
61477;SDS011;47345;52.334;10.392;2023-02-28T00:39:09;3.70;;;3.20;;
61477;SDS011;47345;52.334;10.392;2023-02-28T00:41:43;3.80;;;3.30;;
61477;SDS011;47345;52.334;10.392;2023-02-28T00:44:16;4.40;;;3.30;;
61477;SDS011;47345;52.334;10.392;2023-02-28T00:46:50;3.60;;;3.10;;
61477;SDS011;47345;52.334;10.392;2023-02-28T00:49:28;3.40;;;3.10;;
61477;SDS011;47345;52.334;10.392;2023-02-28T00:52:02;3.90;;;3.10;;
61477;SDS011;47345;52.334;10.392;2023-02-28T00:54:35;3.20;;;2.90;;
61477;SDS011;47345;52.334;10.392;2023-02-28T00:57:07;4.50;;;3.30;;
61477;SDS011;47345;52.334;10.392;2023-02-28T00:59:40;3.90;;;3.00;;
61477;SDS011;47345;52.334;10.392;2023-02-28T01:02:13;3.90;;;3.20;;
61477;SDS011;47345;52.334;10.392;2023-02-28T01:04:47;3.10;;;2.70;;
61477;SDS011;47345;52.334;10.392;2023-02-28T01:07:25;4.20;;;2.80;;
61477;SDS011;47345;52.334;10.392;2023-02-28T01:09:59;4.60;;;3.00;;
61477;SDS011;47345;52.334;10.392;2023-02-28T01:12:32;3.80;;;2.60;;
61477;SDS011;47345;52.334;10.392;2023-02-28T01:15:06;3.50;;;2.80;;
61477;SDS011;47345;52.334;10.392;2023-02-28T01:17:40;4.00;;;3.00;;
61477;SDS011;47345;52.334;10.392;2023-02-28T01:20:14;3.60;;;3.10;;
61477;SDS011;47345;52.334;10.392;2023-02-28T01:22:47;4.40;;;3.50;;
61477;SDS011;47345;52.334;10.392;2023-02-28T01:25:21;4.70;;;3.60;;
61477;SDS011;47345;52.334;10.392;2023-02-28T01:27:54;3.40;;;3.00;;
61477;SDS011;47345;52.334;10.392;2023-02-28T01:30:28;3.20;;;2.90;;
61477;SDS011;47345;52.334;10.392;2023-02-28T01:33:01;3.20;;;2.60;;
61477;SDS011;47345;52.334;10.392;2023-02-28T01:35:35;2.80;;;2.40;;
61477;SDS011;47345;52.334;10.392;2023-02-28T01:38:08;4.40;;;3.40;;
61477;SDS011;47345;52.334;10.392;2023-02-28T01:40:50;4.20;;;3.50;;
61477;SDS011;47345;52.334;10.392;2023-02-28T01:43:25;4.00;;;3.20;;
61477;SDS011;47345;52.334;10.392;2023-02-28T01:46:00;5.70;;;4.30;;
61477;SDS011;47345;52.334;10.392;2023-02-28T01:48:34;2.90;;;2.50;;
61477;SDS011;47345;52.334;10.392;2023-02-28T01:51:10;2.60;;;2.40;;
61477;SDS011;47345;52.334;10.392;2023-02-28T01:53:51;3.30;;;2.80;;
61477;SDS011;47345;52.334;10.392;2023-02-28T01:56:32;4.70;;;3.50;;
61477;SDS011;47345;52.334;10.392;2023-02-28T01:59:06;5.40;;;3.80;;
61477;SDS011;47345;52.334;10.392;2023-02-28T02:01:39;4.00;;;3.40;;
61477;SDS011;47345;52.334;10.392;2023-02-28T02:04:13;4.20;;;3.30;;
61477;SDS011;47345;52.334;10.392;2023-02-28T02:06:48;4.70;;;3.50;;
61477;SDS011;47345;52.334;10.392;2023-02-28T02:09:21;6.60;;;3.90;;
61477;SDS011;47345;52.334;10.392;2023-02-28T02:11:52;4.90;;;3.50;;
61477;SDS011;47345;52.334;10.392;2023-02-28T02:14:40;5.30;;;3.20;;
61477;SDS011;47345;52.334;10.392;2023-02-28T02:17:24;4.20;;;2.90;;
61477;SDS011;47345;52.334;10.392;2023-02-28T02:20:12;3.00;;;2.70;;
61477;SDS011;47345;52.334;10.392;2023-02-28T02:23:11;3.80;;;3.10;;
61477;SDS011;47345;52.334;10.392;2023-02-28T02:32:34;2.60;;;2.50;;
61477;SDS011;47345;52.334;10.392;2023-02-28T02:35:32;4.50;;;3.40;;
61477;SDS011;47345;52.334;10.392;2023-02-28T02:38:13;3.90;;;3.50;;
61477;SDS011;47345;52.334;10.392;2023-02-28T02:40:53;3.70;;;3.10;;
61477;SDS011;47345;52.334;10.392;2023-02-28T02:43:34;3.00;;;2.70;;
61477;SDS011;47345;52.334;10.392;2023-02-28T02:46:12;3.10;;;2.60;;
61477;SDS011;47345;52.334;10.392;2023-02-28T02:48:50;4.00;;;3.20;;
61477;SDS011;47345;52.334;10.392;2023-02-28T02:51:27;3.30;;;2.70;;
61477;SDS011;47345;52.334;10.392;2023-02-28T02:54:02;3.00;;;2.70;;
61477;SDS011;47345;52.334;10.392;2023-02-28T02:56:38;6.00;;;3.80;;
61477;SDS011;47345;52.334;10.392;2023-02-28T02:59:13;4.50;;;3.30;;
61477;SDS011;47345;52.334;10.392;2023-02-28T03:01:51;6.60;;;3.70;;
61477;SDS011;47345;52.334;10.392;2023-02-28T03:04:28;6.10;;;4.40;;
61477;SDS011;47345;52.334;10.392;2023-02-28T03:07:05;3.50;;;3.10;;
61477;SDS011;47345;52.334;10.392;2023-02-28T03:09:38;3.60;;;2.90;;
61477;SDS011;47345;52.334;10.392;2023-02-28T03:12:12;5.30;;;3.80;;
61477;SDS011;47345;52.334;10.392;2023-02-28T03:14:51;8.20;;;5.60;;
61477;SDS011;47345;52.334;10.392;2023-02-28T03:20:35;7.90;;;4.30;;
61477;SDS011;47345;52.334;10.392;2023-02-28T03:23:17;3.60;;;3.30;;
61477;SDS011;47345;52.334;10.392;2023-02-28T03:25:56;7.30;;;5.00;;
61477;SDS011;47345;52.334;10.392;2023-02-28T03:28:36;3.90;;;3.30;;
61477;SDS011;47345;52.334;10.392;2023-02-28T03:31:16;4.80;;;3.50;;
61477;SDS011;47345;52.334;10.392;2023-02-28T03:33:55;3.30;;;2.70;;
61477;SDS011;47345;52.334;10.392;2023-02-28T03:36:35;3.70;;;2.80;;
61477;SDS011;47345;52.334;10.392;2023-02-28T03:39:14;4.40;;;3.10;;
61477;SDS011;47345;52.334;10.392;2023-02-28T03:41:51;3.50;;;2.90;;
61477;SDS011;47345;52.334;10.392;2023-02-28T03:44:27;8.40;;;3.40;;
61477;SDS011;47345;52.334;10.392;2023-02-28T03:47:06;4.10;;;3.20;;
61477;SDS011;47345;52.334;10.392;2023-02-28T03:49:42;5.50;;;3.70;;
61477;SDS011;47345;52.334;10.392;2023-02-28T03:52:18;4.30;;;2.90;;
61477;SDS011;47345;52.334;10.392;2023-02-28T03:54:54;6.60;;;3.30;;
61477;SDS011;47345;52.334;10.392;2023-02-28T03:57:33;3.80;;;3.20;;
61477;SDS011;47345;52.334;10.392;2023-02-28T04:00:12;2.70;;;2.50;;
61477;SDS011;47345;52.334;10.392;2023-02-28T04:02:48;2.80;;;2.50;;
61477;SDS011;47345;52.334;10.392;2023-02-28T04:05:22;6.80;;;3.30;;
61477;SDS011;47345;52.334;10.392;2023-02-28T04:08:04;3.80;;;2.90;;
61477;SDS011;47345;52.334;10.392;2023-02-28T04:10:38;2.90;;;2.60;;
61477;SDS011;47345;52.334;10.392;2023-02-28T04:13:12;3.60;;;2.80;;
61477;SDS011;47345;52.334;10.392;2023-02-28T04:15:44;3.30;;;3.00;;
61477;SDS011;47345;52.334;10.392;2023-02-28T04:18:17;3.90;;;2.90;;
61477;SDS011;47345;52.334;10.392;2023-02-28T04:20:52;3.30;;;2.70;;
61477;SDS011;47345;52.334;10.392;2023-02-28T04:23:26;4.10;;;2.50;;
61477;SDS011;47345;52.334;10.392;2023-02-28T04:26:00;3.30;;;2.70;;
61477;SDS011;47345;52.334;10.392;2023-02-28T04:28:33;4.00;;;2.90;;
61477;SDS011;47345;52.334;10.392;2023-02-28T04:31:08;2.70;;;2.50;;
61477;SDS011;47345;52.334;10.392;2023-02-28T04:33:40;3.30;;;2.50;;
61477;SDS011;47345;52.334;10.392;2023-02-28T04:36:13;2.40;;;2.20;;
61477;SDS011;47345;52.334;10.392;2023-02-28T04:38:46;2.70;;;2.50;;
61477;SDS011;47345;52.334;10.392;2023-02-28T04:41:22;3.10;;;2.40;;
61477;SDS011;47345;52.334;10.392;2023-02-28T04:43:59;2.70;;;2.50;;
61477;SDS011;47345;52.334;10.392;2023-02-28T04:46:32;4.40;;;2.80;;
61477;SDS011;47345;52.334;10.392;2023-02-28T04:49:06;2.90;;;2.40;;
61477;SDS011;47345;52.334;10.392;2023-02-28T04:51:39;3.80;;;2.40;;
61477;SDS011;47345;52.334;10.392;2023-02-28T04:54:12;2.90;;;2.50;;
61477;SDS011;47345;52.334;10.392;2023-02-28T04:56:47;3.00;;;2.30;;
61477;SDS011;47345;52.334;10.392;2023-02-28T04:59:20;3.00;;;2.20;;
61477;SDS011;47345;52.334;10.392;2023-02-28T05:01:53;3.00;;;2.70;;
61477;SDS011;47345;52.334;10.392;2023-02-28T05:04:27;4.00;;;2.80;;
61477;SDS011;47345;52.334;10.392;2023-02-28T05:07:04;4.00;;;2.90;;
61477;SDS011;47345;52.334;10.392;2023-02-28T05:09:39;2.30;;;2.10;;
61477;SDS011;47345;52.334;10.392;2023-02-28T05:12:12;2.70;;;2.50;;
61477;SDS011;47345;52.334;10.392;2023-02-28T05:14:45;6.30;;;4.10;;
61477;SDS011;47345;52.334;10.392;2023-02-28T05:17:18;3.60;;;3.00;;
61477;SDS011;47345;52.334;10.392;2023-02-28T05:19:51;9.10;;;5.30;;
61477;SDS011;47345;52.334;10.392;2023-02-28T05:22:41;3.40;;;3.10;;
61477;SDS011;47345;52.334;10.392;2023-02-28T05:25:15;3.50;;;3.00;;
61477;SDS011;47345;52.334;10.392;2023-02-28T05:27:51;3.10;;;2.80;;
61477;SDS011;47345;52.334;10.392;2023-02-28T05:30:23;3.80;;;3.00;;
61477;SDS011;47345;52.334;10.392;2023-02-28T05:32:58;3.20;;;2.90;;
61477;SDS011;47345;52.334;10.392;2023-02-28T05:35:31;3.60;;;3.00;;
61477;SDS011;47345;52.334;10.392;2023-02-28T05:38:03;2.50;;;2.30;;
61477;SDS011;47345;52.334;10.392;2023-02-28T05:40:36;3.00;;;2.70;;
61477;SDS011;47345;52.334;10.392;2023-02-28T05:43:11;3.10;;;2.70;;
61477;SDS011;47345;52.334;10.392;2023-02-28T05:45:43;5.30;;;3.40;;
61477;SDS011;47345;52.334;10.392;2023-02-28T05:48:17;3.40;;;2.80;;
61477;SDS011;47345;52.334;10.392;2023-02-28T05:50:49;3.10;;;2.40;;
61477;SDS011;47345;52.334;10.392;2023-02-28T05:53:22;6.10;;;3.00;;
61477;SDS011;47345;52.334;10.392;2023-02-28T05:55:56;4.10;;;3.20;;
61477;SDS011;47345;52.334;10.392;2023-02-28T05:58:30;3.70;;;3.30;;
61477;SDS011;47345;52.334;10.392;2023-02-28T06:03:53;4.80;;;3.30;;
61477;SDS011;47345;52.334;10.392;2023-02-28T06:06:26;3.40;;;3.10;;
61477;SDS011;47345;52.334;10.392;2023-02-28T06:09:04;2.80;;;2.60;;
61477;SDS011;47345;52.334;10.392;2023-02-28T06:11:37;2.90;;;2.60;;
61477;SDS011;47345;52.334;10.392;2023-02-28T06:14:14;3.50;;;3.20;;
61477;SDS011;47345;52.334;10.392;2023-02-28T06:16:48;4.40;;;2.90;;
61477;SDS011;47345;52.334;10.392;2023-02-28T06:19:22;3.80;;;3.30;;
61477;SDS011;47345;52.334;10.392;2023-02-28T06:21:56;5.10;;;3.20;;
61477;SDS011;47345;52.334;10.392;2023-02-28T06:24:29;2.90;;;2.60;;
61477;SDS011;47345;52.334;10.392;2023-02-28T06:27:02;4.80;;;2.90;;
61477;SDS011;47345;52.334;10.392;2023-02-28T06:29:36;3.30;;;2.70;;
61477;SDS011;47345;52.334;10.392;2023-02-28T06:32:09;3.70;;;3.00;;
61477;SDS011;47345;52.334;10.392;2023-02-28T06:34:43;3.30;;;2.80;;
61477;SDS011;47345;52.334;10.392;2023-02-28T06:37:16;3.60;;;3.00;;
61477;SDS011;47345;52.334;10.392;2023-02-28T06:39:48;4.70;;;3.40;;
61477;SDS011;47345;52.334;10.392;2023-02-28T06:42:21;4.40;;;3.40;;
61477;SDS011;47345;52.334;10.392;2023-02-28T06:44:58;7.80;;;5.00;;
61477;SDS011;47345;52.334;10.392;2023-02-28T06:47:38;7.10;;;5.10;;
61477;SDS011;47345;52.334;10.392;2023-02-28T06:50:12;7.00;;;4.20;;
61477;SDS011;47345;52.334;10.392;2023-02-28T06:52:48;5.00;;;3.60;;
61477;SDS011;47345;52.334;10.392;2023-02-28T06:55:23;6.10;;;4.30;;
61477;SDS011;47345;52.334;10.392;2023-02-28T06:57:58;5.50;;;3.40;;
61477;SDS011;47345;52.334;10.392;2023-02-28T07:00:32;5.80;;;4.00;;
61477;SDS011;47345;52.334;10.392;2023-02-28T07:03:05;4.10;;;3.00;;
61477;SDS011;47345;52.334;10.392;2023-02-28T07:05:38;5.60;;;3.90;;
61477;SDS011;47345;52.334;10.392;2023-02-28T07:08:12;5.00;;;3.70;;
61477;SDS011;47345;52.334;10.392;2023-02-28T07:10:46;6.00;;;3.80;;
61477;SDS011;47345;52.334;10.392;2023-02-28T07:13:22;4.30;;;3.50;;
61477;SDS011;47345;52.334;10.392;2023-02-28T07:15:56;5.00;;;4.10;;
61477;SDS011;47345;52.334;10.392;2023-02-28T07:18:30;4.70;;;3.60;;
61477;SDS011;47345;52.334;10.392;2023-02-28T07:21:04;4.50;;;3.80;;
61477;SDS011;47345;52.334;10.392;2023-02-28T07:23:38;6.10;;;3.50;;
61477;SDS011;47345;52.334;10.392;2023-02-28T07:26:14;5.40;;;3.90;;
61477;SDS011;47345;52.334;10.392;2023-02-28T07:28:48;4.60;;;3.30;;
61477;SDS011;47345;52.334;10.392;2023-02-28T07:31:22;4.90;;;3.80;;
61477;SDS011;47345;52.334;10.392;2023-02-28T07:33:56;6.50;;;4.10;;
61477;SDS011;47345;52.334;10.392;2023-02-28T07:36:30;4.90;;;3.70;;
61477;SDS011;47345;52.334;10.392;2023-02-28T07:39:04;4.20;;;3.10;;
61477;SDS011;47345;52.334;10.392;2023-02-28T07:41:38;7.70;;;3.70;;
61477;SDS011;47345;52.334;10.392;2023-02-28T07:44:13;5.10;;;3.70;;
61477;SDS011;47345;52.334;10.392;2023-02-28T07:46:47;3.70;;;3.30;;
61477;SDS011;47345;52.334;10.392;2023-02-28T07:49:24;3.40;;;3.10;;
61477;SDS011;47345;52.334;10.392;2023-02-28T07:51:57;4.30;;;3.20;;
61477;SDS011;47345;52.334;10.392;2023-02-28T07:54:31;4.40;;;3.60;;
61477;SDS011;47345;52.334;10.392;2023-02-28T07:57:04;5.00;;;3.30;;
61477;SDS011;47345;52.334;10.392;2023-02-28T07:59:38;5.50;;;4.10;;
61477;SDS011;47345;52.334;10.392;2023-02-28T08:02:14;6.20;;;4.10;;
61477;SDS011;47345;52.334;10.392;2023-02-28T08:04:48;6.90;;;4.30;;
61477;SDS011;47345;52.334;10.392;2023-02-28T08:07:23;5.80;;;4.20;;
61477;SDS011;47345;52.334;10.392;2023-02-28T08:09:56;7.80;;;4.00;;
61477;SDS011;47345;52.334;10.392;2023-02-28T08:12:30;6.90;;;3.90;;
61477;SDS011;47345;52.334;10.392;2023-02-28T08:15:05;4.70;;;3.10;;
61477;SDS011;47345;52.334;10.392;2023-02-28T08:17:40;3.10;;;2.80;;
61477;SDS011;47345;52.334;10.392;2023-02-28T08:20:14;4.90;;;3.40;;
61477;SDS011;47345;52.334;10.392;2023-02-28T08:22:48;6.50;;;3.80;;
61477;SDS011;47345;52.334;10.392;2023-02-28T08:25:22;4.40;;;3.40;;
61477;SDS011;47345;52.334;10.392;2023-02-28T08:27:56;4.40;;;3.40;;
61477;SDS011;47345;52.334;10.392;2023-02-28T08:30:30;3.10;;;2.60;;
61477;SDS011;47345;52.334;10.392;2023-02-28T08:33:03;3.40;;;2.90;;
61477;SDS011;47345;52.334;10.392;2023-02-28T08:35:37;3.10;;;2.80;;
61477;SDS011;47345;52.334;10.392;2023-02-28T08:38:10;3.80;;;2.60;;
61477;SDS011;47345;52.334;10.392;2023-02-28T08:40:44;2.50;;;2.30;;
61477;SDS011;47345;52.334;10.392;2023-02-28T08:43:17;3.30;;;2.30;;
61477;SDS011;47345;52.334;10.392;2023-02-28T08:45:52;2.80;;;2.50;;
61477;SDS011;47345;52.334;10.392;2023-02-28T08:48:27;3.20;;;2.90;;
61477;SDS011;47345;52.334;10.392;2023-02-28T08:51:02;3.20;;;2.40;;
61477;SDS011;47345;52.334;10.392;2023-02-28T08:53:38;3.10;;;2.60;;
61477;SDS011;47345;52.334;10.392;2023-02-28T08:56:13;3.30;;;2.50;;
61477;SDS011;47345;52.334;10.392;2023-02-28T08:58:47;2.30;;;2.10;;
61477;SDS011;47345;52.334;10.392;2023-02-28T09:01:25;2.40;;;2.20;;
61477;SDS011;47345;52.334;10.392;2023-02-28T09:04:00;3.50;;;2.50;;
61477;SDS011;47345;52.334;10.392;2023-02-28T09:06:36;3.60;;;2.30;;
61477;SDS011;47345;52.334;10.392;2023-02-28T09:09:09;2.40;;;2.20;;
61477;SDS011;47345;52.334;10.392;2023-02-28T09:11:43;3.80;;;2.30;;
61477;SDS011;47345;52.334;10.392;2023-02-28T09:14:17;2.60;;;2.40;;
61477;SDS011;47345;52.334;10.392;2023-02-28T09:16:51;5.50;;;2.80;;
61477;SDS011;47345;52.334;10.392;2023-02-28T09:19:26;2.90;;;2.50;;
61477;SDS011;47345;52.334;10.392;2023-02-28T09:22:00;3.90;;;2.50;;
61477;SDS011;47345;52.334;10.392;2023-02-28T09:24:35;4.70;;;2.40;;
61477;SDS011;47345;52.334;10.392;2023-02-28T09:27:13;6.30;;;3.00;;
61477;SDS011;47345;52.334;10.392;2023-02-28T09:29:45;2.70;;;2.50;;
61477;SDS011;47345;52.334;10.392;2023-02-28T09:32:19;6.20;;;2.90;;
61477;SDS011;47345;52.334;10.392;2023-02-28T09:34:52;4.00;;;2.70;;
61477;SDS011;47345;52.334;10.392;2023-02-28T09:37:25;4.30;;;2.90;;
61477;SDS011;47345;52.334;10.392;2023-02-28T09:39:57;5.70;;;3.00;;
61477;SDS011;47345;52.334;10.392;2023-02-28T09:42:31;3.60;;;3.00;;
61477;SDS011;47345;52.334;10.392;2023-02-28T09:45:06;3.60;;;2.60;;
61477;SDS011;47345;52.334;10.392;2023-02-28T09:47:51;4.90;;;3.10;;
61477;SDS011;47345;52.334;10.392;2023-02-28T09:50:30;3.50;;;2.90;;
61477;SDS011;47345;52.334;10.392;2023-02-28T09:53:10;3.30;;;2.60;;
61477;SDS011;47345;52.334;10.392;2023-02-28T09:55:51;3.00;;;2.70;;
61477;SDS011;47345;52.334;10.392;2023-02-28T09:58:31;4.30;;;2.50;;
61477;SDS011;47345;52.334;10.392;2023-02-28T10:01:10;3.90;;;3.10;;
61477;SDS011;47345;52.334;10.392;2023-02-28T10:03:54;4.50;;;3.20;;
61477;SDS011;47345;52.334;10.392;2023-02-28T10:06:30;3.30;;;2.70;;
61477;SDS011;47345;52.334;10.392;2023-02-28T10:09:13;2.50;;;2.10;;
61477;SDS011;47345;52.334;10.392;2023-02-28T10:11:49;2.40;;;2.20;;
61477;SDS011;47345;52.334;10.392;2023-02-28T10:14:26;3.00;;;2.50;;
61477;SDS011;47345;52.334;10.392;2023-02-28T10:17:03;3.80;;;2.60;;
61477;SDS011;47345;52.334;10.392;2023-02-28T10:19:46;5.20;;;2.70;;
61477;SDS011;47345;52.334;10.392;2023-02-28T10:22:27;2.60;;;2.40;;
61477;SDS011;47345;52.334;10.392;2023-02-28T10:25:11;2.40;;;2.20;;
61477;SDS011;47345;52.334;10.392;2023-02-28T10:27:50;3.20;;;2.50;;
61477;SDS011;47345;52.334;10.392;2023-02-28T10:30:29;3.10;;;2.30;;
61477;SDS011;47345;52.334;10.392;2023-02-28T10:33:03;5.00;;;2.20;;
61477;SDS011;47345;52.334;10.392;2023-02-28T10:35:35;2.20;;;2.00;;
61477;SDS011;47345;52.334;10.392;2023-02-28T10:38:11;3.40;;;2.20;;
61477;SDS011;47345;52.334;10.392;2023-02-28T10:40:48;3.60;;;2.10;;
61477;SDS011;47345;52.334;10.392;2023-02-28T10:43:21;2.40;;;2.00;;
61477;SDS011;47345;52.334;10.392;2023-02-28T10:45:58;2.40;;;2.00;;
61477;SDS011;47345;52.334;10.392;2023-02-28T10:48:34;1.90;;;1.80;;
61477;SDS011;47345;52.334;10.392;2023-02-28T10:51:11;3.20;;;2.20;;
61477;SDS011;47345;52.334;10.392;2023-02-28T10:53:49;1.90;;;1.80;;
61477;SDS011;47345;52.334;10.392;2023-02-28T10:56:30;2.20;;;2.00;;
61477;SDS011;47345;52.334;10.392;2023-02-28T10:59:20;2.10;;;1.90;;
61477;SDS011;47345;52.334;10.392;2023-02-28T11:01:57;2.20;;;1.80;;
61477;SDS011;47345;52.334;10.392;2023-02-28T11:04:34;2.90;;;2.30;;
61477;SDS011;47345;52.334;10.392;2023-02-28T11:09:51;2.40;;;2.10;;
61477;SDS011;47345;52.334;10.392;2023-02-28T11:12:26;2.70;;;2.10;;
61477;SDS011;47345;52.334;10.392;2023-02-28T11:15:21;2.30;;;2.10;;
61477;SDS011;47345;52.334;10.392;2023-02-28T11:17:57;3.60;;;2.30;;
61477;SDS011;47345;52.334;10.392;2023-02-28T11:20:33;2.30;;;2.10;;
61477;SDS011;47345;52.334;10.392;2023-02-28T11:23:10;3.00;;;2.20;;
61477;SDS011;47345;52.334;10.392;2023-02-28T11:25:49;4.80;;;2.20;;
61477;SDS011;47345;52.334;10.392;2023-02-28T11:28:27;2.20;;;2.00;;
61477;SDS011;47345;52.334;10.392;2023-02-28T11:31:03;2.90;;;2.20;;
61477;SDS011;47345;52.334;10.392;2023-02-28T11:33:48;2.10;;;1.90;;
61477;SDS011;47345;52.334;10.392;2023-02-28T11:36:23;2.50;;;1.90;;
61477;SDS011;47345;52.334;10.392;2023-02-28T11:38:58;2.20;;;1.90;;
61477;SDS011;47345;52.334;10.392;2023-02-28T11:41:44;2.40;;;1.90;;
61477;SDS011;47345;52.334;10.392;2023-02-28T11:44:40;2.60;;;2.00;;
61477;SDS011;47345;52.334;10.392;2023-02-28T11:47:26;3.40;;;2.20;;
61477;SDS011;47345;52.334;10.392;2023-02-28T11:50:14;2.20;;;1.90;;
61477;SDS011;47345;52.334;10.392;2023-02-28T11:52:59;1.90;;;1.80;;
61477;SDS011;47345;52.334;10.392;2023-02-28T11:55:37;2.40;;;2.20;;
61477;SDS011;47345;52.334;10.392;2023-02-28T11:58:20;2.50;;;2.00;;
61477;SDS011;47345;52.334;10.392;2023-02-28T12:01:11;4.40;;;2.10;;
61477;SDS011;47345;52.334;10.392;2023-02-28T12:04:03;2.30;;;1.80;;
61477;SDS011;47345;52.334;10.392;2023-02-28T12:06:48;2.90;;;2.50;;
61477;SDS011;47345;52.334;10.392;2023-02-28T12:09:32;3.20;;;2.10;;
61477;SDS011;47345;52.334;10.392;2023-02-28T12:12:31;1.90;;;1.80;;
61477;SDS011;47345;52.334;10.392;2023-02-28T12:18:15;2.10;;;1.90;;
61477;SDS011;47345;52.334;10.392;2023-02-28T12:21:08;2.10;;;1.90;;
61477;SDS011;47345;52.334;10.392;2023-02-28T12:23:51;2.90;;;2.30;;
61477;SDS011;47345;52.334;10.392;2023-02-28T12:26:34;2.40;;;2.20;;
61477;SDS011;47345;52.334;10.392;2023-02-28T12:29:12;3.10;;;2.40;;
61477;SDS011;47345;52.334;10.392;2023-02-28T12:31:53;2.00;;;1.80;;
61477;SDS011;47345;52.334;10.392;2023-02-28T12:34:33;2.20;;;2.00;;
61477;SDS011;47345;52.334;10.392;2023-02-28T12:37:13;3.00;;;2.10;;
61477;SDS011;47345;52.334;10.392;2023-02-28T12:39:54;2.90;;;2.00;;
61477;SDS011;47345;52.334;10.392;2023-02-28T12:42:36;2.20;;;2.00;;
61477;SDS011;47345;52.334;10.392;2023-02-28T12:45:13;3.30;;;2.10;;
61477;SDS011;47345;52.334;10.392;2023-02-28T12:47:52;3.30;;;2.50;;
61477;SDS011;47345;52.334;10.392;2023-02-28T12:50:31;2.50;;;2.30;;
61477;SDS011;47345;52.334;10.392;2023-02-28T12:53:08;2.70;;;2.20;;
61477;SDS011;47345;52.334;10.392;2023-02-28T12:55:45;2.80;;;2.50;;
61477;SDS011;47345;52.334;10.392;2023-02-28T12:58:26;3.10;;;2.20;;
61477;SDS011;47345;52.334;10.392;2023-02-28T13:04:21;3.20;;;2.20;;
61477;SDS011;47345;52.334;10.392;2023-02-28T13:10:23;4.50;;;2.90;;
61477;SDS011;47345;52.334;10.392;2023-02-28T13:13:11;3.10;;;2.60;;
61477;SDS011;47345;52.334;10.392;2023-02-28T13:16:05;3.00;;;2.60;;
61477;SDS011;47345;52.334;10.392;2023-02-28T13:18:39;2.20;;;2.00;;
61477;SDS011;47345;52.334;10.392;2023-02-28T13:21:23;2.20;;;2.00;;
61477;SDS011;47345;52.334;10.392;2023-02-28T13:24:03;2.00;;;1.80;;
61477;SDS011;47345;52.334;10.392;2023-02-28T13:29:46;3.40;;;1.90;;
61477;SDS011;47345;52.334;10.392;2023-02-28T13:32:32;1.90;;;1.80;;
61477;SDS011;47345;52.334;10.392;2023-02-28T13:38:15;2.40;;;2.10;;
61477;SDS011;47345;52.334;10.392;2023-02-28T13:44:25;2.60;;;2.40;;
61477;SDS011;47345;52.334;10.392;2023-02-28T13:50:16;2.70;;;2.20;;
61477;SDS011;47345;52.334;10.392;2023-02-28T13:53:07;2.70;;;2.50;;
61477;SDS011;47345;52.334;10.392;2023-02-28T13:56:01;2.40;;;2.20;;
61477;SDS011;47345;52.334;10.392;2023-02-28T13:58:40;3.40;;;2.60;;
61477;SDS011;47345;52.334;10.392;2023-02-28T14:01:28;4.40;;;2.50;;
61477;SDS011;47345;52.334;10.392;2023-02-28T14:04:33;3.10;;;2.50;;
61477;SDS011;47345;52.334;10.392;2023-02-28T14:07:26;2.70;;;2.00;;
61477;SDS011;47345;52.334;10.392;2023-02-28T14:10:04;2.80;;;2.20;;
61477;SDS011;47345;52.334;10.392;2023-02-28T14:15:45;2.60;;;2.10;;
61477;SDS011;47345;52.334;10.392;2023-02-28T14:18:29;3.70;;;2.00;;
61477;SDS011;47345;52.334;10.392;2023-02-28T14:21:09;2.70;;;2.20;;
61477;SDS011;47345;52.334;10.392;2023-02-28T14:23:50;3.40;;;2.40;;
61477;SDS011;47345;52.334;10.392;2023-02-28T14:33:04;2.30;;;2.10;;
61477;SDS011;47345;52.334;10.392;2023-02-28T14:35:53;2.60;;;2.00;;
61477;SDS011;47345;52.334;10.392;2023-02-28T14:38:38;2.20;;;2.00;;
61477;SDS011;47345;52.334;10.392;2023-02-28T14:41:16;4.00;;;2.20;;
61477;SDS011;47345;52.334;10.392;2023-02-28T14:43:54;2.20;;;2.00;;
61477;SDS011;47345;52.334;10.392;2023-02-28T14:46:28;4.10;;;2.00;;
61477;SDS011;47345;52.334;10.392;2023-02-28T14:49:07;3.40;;;2.10;;
61477;SDS011;47345;52.334;10.392;2023-02-28T14:51:46;2.10;;;1.90;;
61477;SDS011;47345;52.334;10.392;2023-02-28T14:54:21;3.00;;;2.20;;
61477;SDS011;47345;52.334;10.392;2023-02-28T14:56:55;2.20;;;2.00;;
61477;SDS011;47345;52.334;10.392;2023-02-28T14:59:29;2.20;;;1.90;;
61477;SDS011;47345;52.334;10.392;2023-02-28T15:02:23;3.00;;;2.40;;
61477;SDS011;47345;52.334;10.392;2023-02-28T15:05:00;2.50;;;2.00;;
61477;SDS011;47345;52.334;10.392;2023-02-28T15:07:48;2.50;;;2.20;;
61477;SDS011;47345;52.334;10.392;2023-02-28T15:10:32;2.60;;;2.20;;
61477;SDS011;47345;52.334;10.392;2023-02-28T15:13:06;3.00;;;2.10;;
61477;SDS011;47345;52.334;10.392;2023-02-28T15:15:45;2.90;;;1.90;;
61477;SDS011;47345;52.334;10.392;2023-02-28T15:18:39;2.60;;;2.10;;
61477;SDS011;47345;52.334;10.392;2023-02-28T15:21:17;8.80;;;4.10;;
61477;SDS011;47345;52.334;10.392;2023-02-28T15:23:51;4.00;;;3.00;;
61477;SDS011;47345;52.334;10.392;2023-02-28T15:26:29;4.50;;;2.40;;
61477;SDS011;47345;52.334;10.392;2023-02-28T15:29:06;3.40;;;2.70;;
61477;SDS011;47345;52.334;10.392;2023-02-28T15:31:45;4.40;;;2.50;;
61477;SDS011;47345;52.334;10.392;2023-02-28T15:34:29;2.80;;;2.20;;
61477;SDS011;47345;52.334;10.392;2023-02-28T15:37:32;2.40;;;2.20;;
61477;SDS011;47345;52.334;10.392;2023-02-28T15:40:15;7.60;;;3.60;;
61477;SDS011;47345;52.334;10.392;2023-02-28T15:43:02;8.40;;;4.20;;
61477;SDS011;47345;52.334;10.392;2023-02-28T15:45:38;5.90;;;3.40;;
61477;SDS011;47345;52.334;10.392;2023-02-28T15:48:17;4.50;;;2.90;;
61477;SDS011;47345;52.334;10.392;2023-02-28T15:50:52;3.30;;;2.90;;
61477;SDS011;47345;52.334;10.392;2023-02-28T15:53:28;2.50;;;2.30;;
61477;SDS011;47345;52.334;10.392;2023-02-28T15:56:05;3.50;;;2.30;;
61477;SDS011;47345;52.334;10.392;2023-02-28T15:58:55;2.50;;;2.20;;
61477;SDS011;47345;52.334;10.392;2023-02-28T16:01:31;2.60;;;2.30;;
61477;SDS011;47345;52.334;10.392;2023-02-28T16:04:05;8.10;;;5.00;;
61477;SDS011;47345;52.334;10.392;2023-02-28T16:06:45;5.00;;;3.10;;
61477;SDS011;47345;52.334;10.392;2023-02-28T16:09:31;4.50;;;2.30;;
61477;SDS011;47345;52.334;10.392;2023-02-28T16:12:08;3.50;;;2.60;;
61477;SDS011;47345;52.334;10.392;2023-02-28T16:14:42;2.20;;;1.90;;
61477;SDS011;47345;52.334;10.392;2023-02-28T16:17:16;2.10;;;2.00;;
61477;SDS011;47345;52.334;10.392;2023-02-28T16:19:53;2.50;;;2.30;;